sensor_id;sensor_type;location;lat;lon;timestamp;pressure;altitude;pressure_sealevel;temperature;humidity
77360;BME280;66426;51.454;7.266;2023-07-13T00:00:17;100005.22;;;17.99;nan
77360;BME280;66426;51.454;7.266;2023-07-13T00:01:17;100000.00;;;18.07;nan
77360;BME280;66426;51.454;7.266;2023-07-13T00:02:19;100012.94;;;17.94;nan
77360;BME280;66426;51.454;7.266;2023-07-13T00:03:20;100008.38;;;17.83;nan
77360;BME280;66426;51.454;7.266;2023-07-13T00:04:21;100009.38;;;17.71;nan
77360;BME280;66426;51.454;7.266;2023-07-13T00:05:23;100011.38;;;17.80;nan
77360;BME280;66426;51.454;7.266;2023-07-13T00:06:24;100015.53;;;17.96;nan
77360;BME280;66426;51.454;7.266;2023-07-13T00:07:25;100018.78;;;17.78;nan
77360;BME280;66426;51.454;7.266;2023-07-13T00:08:25;100020.34;;;18.03;nan
77360;BME280;66426;51.454;7.266;2023-07-13T00:09:26;100016.19;;;17.88;nan
77360;BME280;66426;51.454;7.266;2023-07-13T00:10:27;100016.03;;;17.78;nan
77360;BME280;66426;51.454;7.266;2023-07-13T00:11:28;100007.75;;;17.68;nan
77360;BME280;66426;51.454;7.266;2023-07-13T00:12:29;100007.03;;;17.66;nan
77360;BME280;66426;51.454;7.266;2023-07-13T00:13:30;100008.50;;;17.82;nan
77360;BME280;66426;51.454;7.266;2023-07-13T00:14:31;100014.94;;;17.69;nan
77360;BME280;66426;51.454;7.266;2023-07-13T00:15:32;100013.72;;;17.62;nan
77360;BME280;66426;51.454;7.266;2023-07-13T00:16:34;100011.25;;;17.37;nan
77360;BME280;66426;51.454;7.266;2023-07-13T00:17:36;100011.50;;;17.56;nan
77360;BME280;66426;51.454;7.266;2023-07-13T00:18:38;100017.66;;;17.69;nan
77360;BME280;66426;51.454;7.266;2023-07-13T00:19:39;100016.22;;;17.43;nan
77360;BME280;66426;51.454;7.266;2023-07-13T00:20:40;100015.38;;;17.42;nan
77360;BME280;66426;51.454;7.266;2023-07-13T00:21:41;100010.53;;;17.57;nan
77360;BME280;66426;51.454;7.266;2023-07-13T00:36:54;100011.59;;;17.66;nan
77360;BME280;66426;51.454;7.266;2023-07-13T00:37:55;100012.22;;;17.69;nan
77360;BME280;66426;51.454;7.266;2023-07-13T00:38:56;100015.06;;;17.68;nan
77360;BME280;66426;51.454;7.266;2023-07-13T00:39:57;100009.59;;;17.79;nan
77360;BME280;66426;51.454;7.266;2023-07-13T00:40:58;100007.28;;;17.75;nan
77360;BME280;66426;51.454;7.266;2023-07-13T00:41:58;100011.38;;;17.80;nan
77360;BME280;66426;51.454;7.266;2023-07-13T00:42:59;100008.97;;;17.87;nan
77360;BME280;66426;51.454;7.266;2023-07-13T00:44:01;100011.34;;;17.69;nan
77360;BME280;66426;51.454;7.266;2023-07-13T00:45:04;100006.53;;;17.61;nan
77360;BME280;66426;51.454;7.266;2023-07-13T00:46:16;100008.66;;;17.46;nan
77360;BME280;66426;51.454;7.266;2023-07-13T00:47:17;100004.69;;;17.51;nan
77360;BME280;66426;51.454;7.266;2023-07-13T00:48:18;100004.94;;;17.59;nan
77360;BME280;66426;51.454;7.266;2023-07-13T00:49:23;100005.59;;;17.06;nan
77360;BME280;66426;51.454;7.266;2023-07-13T00:50:24;100007.56;;;17.38;nan
77360;BME280;66426;51.454;7.266;2023-07-13T00:51:27;100006.41;;;17.85;nan
77360;BME280;66426;51.454;7.266;2023-07-13T00:52:30;100006.03;;;17.67;nan
77360;BME280;66426;51.454;7.266;2023-07-13T00:53:31;100005.19;;;17.44;nan
77360;BME280;66426;51.454;7.266;2023-07-13T00:54:33;100014.84;;;17.49;nan
77360;BME280;66426;51.454;7.266;2023-07-13T00:55:35;100008.19;;;17.53;nan
77360;BME280;66426;51.454;7.266;2023-07-13T00:56:36;100006.78;;;17.58;nan
77360;BME280;66426;51.454;7.266;2023-07-13T00:57:38;100006.78;;;17.58;nan
77360;BME280;66426;51.454;7.266;2023-07-13T00:58:38;100010.97;;;17.74;nan
77360;BME280;66426;51.454;7.266;2023-07-13T00:59:40;100007.13;;;17.76;nan
77360;BME280;66426;51.454;7.266;2023-07-13T01:00:42;100009.25;;;17.73;nan
77360;BME280;66426;51.454;7.266;2023-07-13T01:01:43;99999.81;;;17.88;nan
77360;BME280;66426;51.454;7.266;2023-07-13T01:02:45;100011.59;;;17.88;nan
77360;BME280;66426;51.454;7.266;2023-07-13T01:03:47;100005.50;;;17.96;nan
77360;BME280;66426;51.454;7.266;2023-07-13T01:04:47;100002.13;;;17.27;nan
77360;BME280;66426;51.454;7.266;2023-07-13T01:05:48;100003.31;;;17.56;nan
77360;BME280;66426;51.454;7.266;2023-07-13T01:06:49;100003.09;;;17.48;nan
77360;BME280;66426;51.454;7.266;2023-07-13T01:07:51;100009.78;;;17.55;nan
77360;BME280;66426;51.454;7.266;2023-07-13T01:08:53;100007.53;;;17.60;nan
77360;BME280;66426;51.454;7.266;2023-07-13T01:09:54;99997.97;;;17.66;nan
77360;BME280;66426;51.454;7.266;2023-07-13T01:10:55;99999.84;;;17.54;nan
77360;BME280;66426;51.454;7.266;2023-07-13T01:11:56;100002.97;;;17.04;nan
77360;BME280;66426;51.454;7.266;2023-07-13T01:12:57;100003.22;;;17.24;nan
77360;BME280;66426;51.454;7.266;2023-07-13T01:13:59;99999.50;;;17.36;nan
77360;BME280;66426;51.454;7.266;2023-07-13T01:15:02;99998.28;;;17.29;nan
77360;BME280;66426;51.454;7.266;2023-07-13T01:16:04;99999.00;;;17.54;nan
77360;BME280;66426;51.454;7.266;2023-07-13T01:17:07;99999.13;;;17.30;nan
77360;BME280;66426;51.454;7.266;2023-07-13T01:18:10;99998.78;;;17.23;nan
77360;BME280;66426;51.454;7.266;2023-07-13T01:19:12;100004.34;;;17.21;nan
77360;BME280;66426;51.454;7.266;2023-07-13T01:20:16;100003.63;;;17.08;nan
77360;BME280;66426;51.454;7.266;2023-07-13T01:21:19;100000.53;;;17.13;nan
77360;BME280;66426;51.454;7.266;2023-07-13T01:22:20;99993.44;;;17.21;nan
77360;BME280;66426;51.454;7.266;2023-07-13T01:23:27;99996.66;;;17.27;nan
77360;BME280;66426;51.454;7.266;2023-07-13T01:24:28;99998.78;;;17.23;nan
77360;BME280;66426;51.454;7.266;2023-07-13T01:25:29;99993.81;;;17.17;nan
77360;BME280;66426;51.454;7.266;2023-07-13T01:26:30;99992.47;;;17.22;nan
77360;BME280;66426;51.454;7.266;2023-07-13T01:27:31;99996.31;;;17.42;nan
77360;BME280;66426;51.454;7.266;2023-07-13T01:28:31;100002.00;;;17.17;nan
77360;BME280;66426;51.454;7.266;2023-07-13T01:29:38;99997.06;;;17.11;nan
77360;BME280;66426;51.454;7.266;2023-07-13T01:30:48;99997.44;;;17.17;nan
77360;BME280;66426;51.454;7.266;2023-07-13T01:31:48;100002.47;;;16.99;nan
77360;BME280;66426;51.454;7.266;2023-07-13T01:32:49;100002.47;;;16.88;nan
77360;BME280;66426;51.454;7.266;2023-07-13T01:33:51;100005.28;;;16.75;nan
77360;BME280;66426;51.454;7.266;2023-07-13T01:34:52;100000.50;;;16.90;nan
77360;BME280;66426;51.454;7.266;2023-07-13T01:35:54;100006.69;;;16.81;nan
77360;BME280;66426;51.454;7.266;2023-07-13T01:36:59;100004.59;;;16.96;nan
77360;BME280;66426;51.454;7.266;2023-07-13T01:38:00;99999.38;;;17.04;nan
77360;BME280;66426;51.454;7.266;2023-07-13T01:39:01;99999.25;;;17.17;nan
77360;BME280;66426;51.454;7.266;2023-07-13T01:40:03;100002.88;;;17.40;nan
77360;BME280;66426;51.454;7.266;2023-07-13T01:41:04;100003.22;;;17.01;nan
77360;BME280;66426;51.454;7.266;2023-07-13T01:42:05;99998.63;;;17.02;nan
77360;BME280;66426;51.454;7.266;2023-07-13T01:43:05;100000.16;;;17.17;nan
77360;BME280;66426;51.454;7.266;2023-07-13T01:44:06;99999.03;;;17.20;nan
77360;BME280;66426;51.454;7.266;2023-07-13T01:45:07;99998.16;;;16.97;nan
77360;BME280;66426;51.454;7.266;2023-07-13T01:46:08;99992.59;;;17.21;nan
77360;BME280;66426;51.454;7.266;2023-07-13T01:47:09;99996.28;;;17.31;nan
77360;BME280;66426;51.454;7.266;2023-07-13T01:48:09;99997.31;;;17.30;nan
77360;BME280;66426;51.454;7.266;2023-07-13T01:49:10;99995.56;;;17.18;nan
77360;BME280;66426;51.454;7.266;2023-07-13T01:50:11;100000.75;;;17.10;nan
77360;BME280;66426;51.454;7.266;2023-07-13T01:51:12;100009.44;;;16.57;nan
77360;BME280;66426;51.454;7.266;2023-07-13T01:52:15;100004.38;;;16.64;nan
77360;BME280;66426;51.454;7.266;2023-07-13T01:53:15;100006.69;;;16.57;nan
77360;BME280;66426;51.454;7.266;2023-07-13T01:54:16;100007.00;;;16.76;nan
77360;BME280;66426;51.454;7.266;2023-07-13T01:55:17;100010.16;;;16.94;nan
77360;BME280;66426;51.454;7.266;2023-07-13T01:56:18;100005.19;;;16.99;nan
77360;BME280;66426;51.454;7.266;2023-07-13T01:57:19;100018.22;;;16.60;nan
77360;BME280;66426;51.454;7.266;2023-07-13T01:58:19;100013.44;;;16.75;nan
77360;BME280;66426;51.454;7.266;2023-07-13T01:59:20;100007.09;;;17.10;nan
77360;BME280;66426;51.454;7.266;2023-07-13T02:00:21;100014.25;;;16.65;nan
77360;BME280;66426;51.454;7.266;2023-07-13T02:01:21;100020.34;;;16.68;nan
77360;BME280;66426;51.454;7.266;2023-07-13T02:02:22;100009.50;;;16.79;nan
77360;BME280;66426;51.454;7.266;2023-07-13T02:03:23;100023.25;;;16.89;nan
77360;BME280;66426;51.454;7.266;2023-07-13T02:04:24;100014.72;;;16.83;nan
77360;BME280;66426;51.454;7.266;2023-07-13T02:05:25;100021.53;;;16.88;nan
77360;BME280;66426;51.454;7.266;2023-07-13T02:06:25;100019.28;;;16.47;nan
77360;BME280;66426;51.454;7.266;2023-07-13T02:07:28;100024.00;;;16.80;nan
77360;BME280;66426;51.454;7.266;2023-07-13T02:08:28;100011.66;;;16.98;nan
77360;BME280;66426;51.454;7.266;2023-07-13T02:09:29;100018.44;;;16.93;nan
77360;BME280;66426;51.454;7.266;2023-07-13T02:10:31;100013.00;;;16.93;nan
77360;BME280;66426;51.454;7.266;2023-07-13T02:11:32;100020.22;;;16.70;nan
77360;BME280;66426;51.454;7.266;2023-07-13T02:12:33;100016.06;;;16.42;nan
77360;BME280;66426;51.454;7.266;2023-07-13T02:13:34;100009.16;;;17.52;nan
77360;BME280;66426;51.454;7.266;2023-07-13T02:14:35;100010.91;;;17.19;nan
77360;BME280;66426;51.454;7.266;2023-07-13T02:15:38;100018.56;;;16.91;nan
77360;BME280;66426;51.454;7.266;2023-07-13T02:16:38;100007.59;;;16.69;nan
77360;BME280;66426;51.454;7.266;2023-07-13T02:17:39;100008.06;;;16.98;nan
77360;BME280;66426;51.454;7.266;2023-07-13T02:18:40;100007.00;;;16.76;nan
77360;BME280;66426;51.454;7.266;2023-07-13T02:19:41;100011.25;;;16.80;nan
77360;BME280;66426;51.454;7.266;2023-07-13T02:20:41;100013.56;;;16.74;nan
77360;BME280;66426;51.454;7.266;2023-07-13T02:21:42;100008.09;;;16.74;nan
77360;BME280;66426;51.454;7.266;2023-07-13T02:22:44;100008.66;;;16.79;nan
77360;BME280;66426;51.454;7.266;2023-07-13T02:23:45;100004.59;;;16.49;nan
77360;BME280;66426;51.454;7.266;2023-07-13T02:24:46;100008.97;;;16.63;nan
77360;BME280;66426;51.454;7.266;2023-07-13T02:25:46;100008.09;;;16.63;nan
77360;BME280;66426;51.454;7.266;2023-07-13T02:26:47;100014.25;;;16.65;nan
77360;BME280;66426;51.454;7.266;2023-07-13T02:27:48;100011.53;;;17.11;nan
77360;BME280;66426;51.454;7.266;2023-07-13T02:28:49;100015.09;;;16.89;nan
77360;BME280;66426;51.454;7.266;2023-07-13T02:29:49;100015.63;;;16.59;nan
77360;BME280;66426;51.454;7.266;2023-07-13T02:30:51;100019.34;;;16.69;nan
77360;BME280;66426;51.454;7.266;2023-07-13T02:31:52;100013.97;;;16.92;nan
77360;BME280;66426;51.454;7.266;2023-07-13T02:32:53;100006.31;;;16.97;nan
77360;BME280;66426;51.454;7.266;2023-07-13T02:33:54;100018.44;;;16.46;nan
77360;BME280;66426;51.454;7.266;2023-07-13T02:34:54;100019.44;;;16.45;nan
77360;BME280;66426;51.454;7.266;2023-07-13T02:35:55;100012.75;;;17.30;nan
77360;BME280;66426;51.454;7.266;2023-07-13T02:36:56;100015.22;;;16.88;nan
77360;BME280;66426;51.454;7.266;2023-07-13T02:37:58;100000.75;;;17.21;nan
77360;BME280;66426;51.454;7.266;2023-07-13T02:39:00;99997.66;;;17.14;nan
77360;BME280;66426;51.454;7.266;2023-07-13T02:40:01;100003.69;;;16.84;nan
77360;BME280;66426;51.454;7.266;2023-07-13T02:41:08;100006.09;;;16.65;nan
77360;BME280;66426;51.454;7.266;2023-07-13T02:42:09;100013.69;;;16.37;nan
77360;BME280;66426;51.454;7.266;2023-07-13T02:43:12;100011.53;;;16.53;nan
77360;BME280;66426;51.454;7.266;2023-07-13T02:44:12;100013.47;;;16.40;nan
77360;BME280;66426;51.454;7.266;2023-07-13T02:45:14;100009.31;;;16.58;nan
77360;BME280;66426;51.454;7.266;2023-07-13T02:46:14;100015.16;;;16.65;nan
77360;BME280;66426;51.454;7.266;2023-07-13T02:47:15;100015.94;;;16.43;nan
77360;BME280;66426;51.454;7.266;2023-07-13T02:48:16;100015.59;;;16.48;nan
77360;BME280;66426;51.454;7.266;2023-07-13T02:49:17;100010.22;;;16.70;nan
77360;BME280;66426;51.454;7.266;2023-07-13T02:50:17;100004.78;;;16.70;nan
77360;BME280;66426;51.454;7.266;2023-07-13T02:51:18;100009.94;;;16.62;nan
77360;BME280;66426;51.454;7.266;2023-07-13T02:52:19;100008.22;;;16.61;nan
77360;BME280;66426;51.454;7.266;2023-07-13T02:53:21;100005.63;;;16.24;nan
77360;BME280;66426;51.454;7.266;2023-07-13T02:54:22;100005.50;;;16.61;nan
77360;BME280;66426;51.454;7.266;2023-07-13T02:55:22;100006.63;;;16.34;nan
77360;BME280;66426;51.454;7.266;2023-07-13T02:56:24;100009.91;;;16.51;nan
77360;BME280;66426;51.454;7.266;2023-07-13T02:57:26;100010.69;;;16.64;nan
77360;BME280;66426;51.454;7.266;2023-07-13T02:58:28;100006.34;;;16.61;nan
77360;BME280;66426;51.454;7.266;2023-07-13T02:59:29;100015.72;;;16.46;nan
77360;BME280;66426;51.454;7.266;2023-07-13T03:00:29;100016.09;;;16.53;nan
77360;BME280;66426;51.454;7.266;2023-07-13T03:01:30;100011.19;;;16.58;nan
77360;BME280;66426;51.454;7.266;2023-07-13T03:02:33;100020.78;;;16.51;nan
77360;BME280;66426;51.454;7.266;2023-07-13T03:03:34;100019.78;;;16.52;nan
77360;BME280;66426;51.454;7.266;2023-07-13T03:04:35;100015.03;;;16.31;nan
77360;BME280;66426;51.454;7.266;2023-07-13T03:05:36;100021.41;;;16.19;nan
77360;BME280;66426;51.454;7.266;2023-07-13T03:06:37;100014.53;;;16.26;nan
77360;BME280;66426;51.454;7.266;2023-07-13T03:07:38;100025.66;;;16.23;nan
77360;BME280;66426;51.454;7.266;2023-07-13T03:08:40;100023.75;;;16.48;nan
77360;BME280;66426;51.454;7.266;2023-07-13T03:09:41;100030.81;;;16.50;nan
77360;BME280;66426;51.454;7.266;2023-07-13T03:10:41;100024.63;;;16.48;nan
77360;BME280;66426;51.454;7.266;2023-07-13T03:11:42;100018.84;;;16.17;nan
77360;BME280;66426;51.454;7.266;2023-07-13T03:12:43;100017.84;;;16.18;nan
77360;BME280;66426;51.454;7.266;2023-07-13T03:13:44;100021.75;;;16.38;nan
77360;BME280;66426;51.454;7.266;2023-07-13T03:14:45;100015.72;;;16.22;nan
77360;BME280;66426;51.454;7.266;2023-07-13T03:15:48;100018.25;;;16.01;nan
77360;BME280;66426;51.454;7.266;2023-07-13T03:16:48;100023.69;;;16.01;nan
77360;BME280;66426;51.454;7.266;2023-07-13T03:17:49;100019.09;;;16.02;nan
77360;BME280;66426;51.454;7.266;2023-07-13T03:18:50;100018.97;;;16.27;nan
77360;BME280;66426;51.454;7.266;2023-07-13T03:19:51;100022.44;;;16.29;nan
77360;BME280;66426;51.454;7.266;2023-07-13T03:20:52;100028.13;;;16.26;nan
77360;BME280;66426;51.454;7.266;2023-07-13T03:21:53;100020.34;;;15.98;nan
77360;BME280;66426;51.454;7.266;2023-07-13T03:22:54;100022.47;;;16.05;nan
77360;BME280;66426;51.454;7.266;2023-07-13T03:23:56;100022.06;;;16.58;nan
77360;BME280;66426;51.454;7.266;2023-07-13T03:24:57;100027.25;;;16.61;nan
77360;BME280;66426;51.454;7.266;2023-07-13T03:26:02;100029.56;;;16.43;nan
77360;BME280;66426;51.454;7.266;2023-07-13T03:27:03;100031.94;;;16.24;nan
77360;BME280;66426;51.454;7.266;2023-07-13T03:28:04;100035.94;;;16.31;nan
77360;BME280;66426;51.454;7.266;2023-07-13T03:29:06;100029.72;;;16.29;nan
77360;BME280;66426;51.454;7.266;2023-07-13T03:30:07;100029.56;;;16.19;nan
77360;BME280;66426;51.454;7.266;2023-07-13T03:31:08;100033.22;;;16.31;nan
77360;BME280;66426;51.454;7.266;2023-07-13T03:32:10;100034.19;;;16.30;nan
77360;BME280;66426;51.454;7.266;2023-07-13T03:33:10;100038.72;;;16.18;nan
77360;BME280;66426;51.454;7.266;2023-07-13T03:34:11;100037.78;;;16.06;nan
77360;BME280;66426;51.454;7.266;2023-07-13T03:35:12;100031.06;;;15.99;nan
77360;BME280;66426;51.454;7.266;2023-07-13T03:36:14;100025.94;;;15.83;nan
77360;BME280;66426;51.454;7.266;2023-07-13T03:37:16;100025.94;;;15.83;nan
77360;BME280;66426;51.454;7.266;2023-07-13T03:38:17;100040.31;;;15.96;nan
77360;BME280;66426;51.454;7.266;2023-07-13T03:39:19;100034.47;;;15.90;nan
77360;BME280;66426;51.454;7.266;2023-07-13T03:40:20;100030.97;;;15.64;nan
77360;BME280;66426;51.454;7.266;2023-07-13T03:41:21;100036.28;;;15.78;nan
77360;BME280;66426;51.454;7.266;2023-07-13T03:42:23;100035.88;;;15.95;nan
77360;BME280;66426;51.454;7.266;2023-07-13T03:43:23;100033.91;;;15.61;nan
77360;BME280;66426;51.454;7.266;2023-07-13T03:44:24;100042.56;;;15.79;nan
77360;BME280;66426;51.454;7.266;2023-07-13T03:45:25;100041.84;;;16.01;nan
77360;BME280;66426;51.454;7.266;2023-07-13T03:46:25;100047.78;;;16.06;nan
77360;BME280;66426;51.454;7.266;2023-07-13T03:47:26;100049.63;;;15.81;nan
77360;BME280;66426;51.454;7.266;2023-07-13T03:48:27;100052.81;;;15.75;nan
77360;BME280;66426;51.454;7.266;2023-07-13T03:49:27;100052.78;;;15.62;nan
77360;BME280;66426;51.454;7.266;2023-07-13T03:50:28;100045.38;;;15.77;nan
77360;BME280;66426;51.454;7.266;2023-07-13T03:51:29;100048.75;;;15.81;nan
77360;BME280;66426;51.454;7.266;2023-07-13T03:52:29;100046.44;;;15.87;nan
77360;BME280;66426;51.454;7.266;2023-07-13T03:53:30;100049.69;;;16.16;nan
77360;BME280;66426;51.454;7.266;2023-07-13T03:54:32;100053.78;;;16.22;nan
77360;BME280;66426;51.454;7.266;2023-07-13T03:55:33;100054.84;;;16.08;nan
77360;BME280;66426;51.454;7.266;2023-07-13T03:56:34;100053.69;;;16.24;nan
77360;BME280;66426;51.454;7.266;2023-07-13T03:57:34;100055.66;;;15.98;nan
77360;BME280;66426;51.454;7.266;2023-07-13T03:58:36;100053.56;;;16.01;nan
77360;BME280;66426;51.454;7.266;2023-07-13T03:59:37;100050.69;;;15.91;nan
77360;BME280;66426;51.454;7.266;2023-07-13T04:00:38;100055.72;;;16.09;nan
77360;BME280;66426;51.454;7.266;2023-07-13T04:01:38;100049.47;;;15.95;nan
77360;BME280;66426;51.454;7.266;2023-07-13T04:02:39;100055.44;;;16.01;nan
77360;BME280;66426;51.454;7.266;2023-07-13T04:03:41;100055.81;;;16.07;nan
77360;BME280;66426;51.454;7.266;2023-07-13T04:04:42;100056.81;;;16.06;nan
77360;BME280;66426;51.454;7.266;2023-07-13T04:05:43;100061.25;;;16.07;nan
77360;BME280;66426;51.454;7.266;2023-07-13T04:06:44;100060.72;;;15.78;nan
77360;BME280;66426;51.454;7.266;2023-07-13T04:07:45;100067.97;;;15.90;nan
77360;BME280;66426;51.454;7.266;2023-07-13T04:08:46;100065.59;;;16.10;nan
77360;BME280;66426;51.454;7.266;2023-07-13T04:09:48;100070.56;;;16.16;nan
77360;BME280;66426;51.454;7.266;2023-07-13T04:10:49;100058.97;;;15.64;nan
77360;BME280;66426;51.454;7.266;2023-07-13T04:11:49;100072.03;;;15.72;nan
77360;BME280;66426;51.454;7.266;2023-07-13T04:12:50;100066.34;;;16.36;nan
77360;BME280;66426;51.454;7.266;2023-07-13T04:13:51;100070.06;;;16.11;nan
77360;BME280;66426;51.454;7.266;2023-07-13T04:14:52;100063.09;;;16.07;nan
77360;BME280;66426;51.454;7.266;2023-07-13T04:15:53;100073.00;;;16.08;nan
77360;BME280;66426;51.454;7.266;2023-07-13T04:16:54;100065.06;;;16.05;nan
77360;BME280;66426;51.454;7.266;2023-07-13T04:17:55;100063.22;;;15.81;nan
77360;BME280;66426;51.454;7.266;2023-07-13T04:18:55;100066.16;;;16.02;nan
77360;BME280;66426;51.454;7.266;2023-07-13T04:20:00;100068.28;;;16.23;nan
77360;BME280;66426;51.454;7.266;2023-07-13T04:21:00;100071.63;;;16.26;nan
77360;BME280;66426;51.454;7.266;2023-07-13T04:22:01;100065.38;;;16.13;nan
77360;BME280;66426;51.454;7.266;2023-07-13T04:23:02;100067.69;;;16.06;nan
77360;BME280;66426;51.454;7.266;2023-07-13T04:24:03;100064.50;;;15.88;nan
77360;BME280;66426;51.454;7.266;2023-07-13T04:25:06;100064.50;;;15.88;nan
77360;BME280;66426;51.454;7.266;2023-07-13T04:26:06;100069.06;;;16.12;nan
77360;BME280;66426;51.454;7.266;2023-07-13T04:27:07;100068.59;;;15.94;nan
77360;BME280;66426;51.454;7.266;2023-07-13T04:28:08;100073.13;;;16.30;nan
77360;BME280;66426;51.454;7.266;2023-07-13T04:29:09;100069.19;;;16.10;nan
77360;BME280;66426;51.454;7.266;2023-07-13T04:30:10;100068.19;;;16.11;nan
77360;BME280;66426;51.454;7.266;2023-07-13T04:31:10;100076.53;;;16.21;nan
77360;BME280;66426;51.454;7.266;2023-07-13T04:32:11;100081.91;;;16.69;nan
77360;BME280;66426;51.454;7.266;2023-07-13T04:33:12;100073.78;;;17.61;nan
77360;BME280;66426;51.454;7.266;2023-07-13T04:34:12;100072.13;;;16.91;nan
77360;BME280;66426;51.454;7.266;2023-07-13T04:35:13;100081.88;;;16.23;nan
77360;BME280;66426;51.454;7.266;2023-07-13T04:36:14;100079.31;;;16.08;nan
77360;BME280;66426;51.454;7.266;2023-07-13T04:37:15;100080.31;;;15.94;nan
77360;BME280;66426;51.454;7.266;2023-07-13T04:38:16;100085.47;;;15.86;nan
77360;BME280;66426;51.454;7.266;2023-07-13T04:39:17;100090.53;;;16.04;nan
77360;BME280;66426;51.454;7.266;2023-07-13T04:40:19;100084.59;;;16.23;nan
77360;BME280;66426;51.454;7.266;2023-07-13T04:41:20;100083.88;;;16.32;nan
77360;BME280;66426;51.454;7.266;2023-07-13T04:42:22;100085.75;;;16.67;nan
77360;BME280;66426;51.454;7.266;2023-07-13T04:43:22;100083.94;;;16.43;nan
77360;BME280;66426;51.454;7.266;2023-07-13T04:44:23;100084.06;;;16.17;nan
77360;BME280;66426;51.454;7.266;2023-07-13T04:45:24;100079.06;;;16.11;nan
77360;BME280;66426;51.454;7.266;2023-07-13T04:46:25;100087.94;;;16.26;nan
77360;BME280;66426;51.454;7.266;2023-07-13T04:47:25;100089.66;;;16.27;nan
77360;BME280;66426;51.454;7.266;2023-07-13T04:48:26;100080.63;;;16.27;nan
77360;BME280;66426;51.454;7.266;2023-07-13T04:49:27;100082.84;;;16.22;nan
77360;BME280;66426;51.454;7.266;2023-07-13T04:50:27;100084.22;;;16.27;nan
77360;BME280;66426;51.454;7.266;2023-07-13T04:51:28;100092.47;;;16.50;nan
77360;BME280;66426;51.454;7.266;2023-07-13T04:52:29;100079.22;;;15.97;nan
77360;BME280;66426;51.454;7.266;2023-07-13T04:53:30;100089.38;;;15.95;nan
77360;BME280;66426;51.454;7.266;2023-07-13T04:54:30;100085.63;;;16.33;nan
77360;BME280;66426;51.454;7.266;2023-07-13T04:55:33;100089.50;;;16.17;nan
77360;BME280;66426;51.454;7.266;2023-07-13T04:56:33;100085.44;;;16.23;nan
77360;BME280;66426;51.454;7.266;2023-07-13T04:57:34;100085.56;;;16.22;nan
77360;BME280;66426;51.454;7.266;2023-07-13T04:58:35;100083.81;;;16.21;nan
77360;BME280;66426;51.454;7.266;2023-07-13T04:59:35;100083.94;;;16.19;nan
77360;BME280;66426;51.454;7.266;2023-07-13T05:00:36;100089.09;;;16.11;nan
77360;BME280;66426;51.454;7.266;2023-07-13T05:01:37;100083.09;;;15.82;nan
77360;BME280;66426;51.454;7.266;2023-07-13T05:02:38;100082.75;;;15.86;nan
77360;BME280;66426;51.454;7.266;2023-07-13T05:03:39;100084.06;;;16.17;nan
77360;BME280;66426;51.454;7.266;2023-07-13T05:04:40;100081.22;;;16.19;nan
77360;BME280;66426;51.454;7.266;2023-07-13T05:05:40;100089.91;;;16.84;nan
77360;BME280;66426;51.454;7.266;2023-07-13T05:06:41;100087.63;;;16.42;nan
77360;BME280;66426;51.454;7.266;2023-07-13T05:07:42;100090.13;;;16.45;nan
77360;BME280;66426;51.454;7.266;2023-07-13T05:08:42;100086.75;;;16.66;nan
77360;BME280;66426;51.454;7.266;2023-07-13T05:09:43;100086.31;;;16.24;nan
77360;BME280;66426;51.454;7.266;2023-07-13T05:10:45;100089.44;;;16.30;nan
77360;BME280;66426;51.454;7.266;2023-07-13T05:11:46;100092.03;;;16.32;nan
77360;BME280;66426;51.454;7.266;2023-07-13T05:12:47;100092.03;;;16.32;nan
77360;BME280;66426;51.454;7.266;2023-07-13T05:13:47;100092.88;;;16.32;nan
77360;BME280;66426;51.454;7.266;2023-07-13T05:14:48;100092.75;;;16.10;nan
77360;BME280;66426;51.454;7.266;2023-07-13T05:15:55;100091.75;;;16.24;nan
77360;BME280;66426;51.454;7.266;2023-07-13T05:16:56;100099.22;;;16.33;nan
77360;BME280;66426;51.454;7.266;2023-07-13T05:17:57;100096.25;;;16.60;nan
77360;BME280;66426;51.454;7.266;2023-07-13T05:18:58;100095.19;;;16.50;nan
77360;BME280;66426;51.454;7.266;2023-07-13T05:19:59;100099.59;;;16.64;nan
77360;BME280;66426;51.454;7.266;2023-07-13T05:21:00;100106.75;;;16.89;nan
77360;BME280;66426;51.454;7.266;2023-07-13T05:22:01;100108.22;;;16.57;nan
77360;BME280;66426;51.454;7.266;2023-07-13T05:23:03;100104.97;;;17.23;nan
77360;BME280;66426;51.454;7.266;2023-07-13T05:24:03;100107.50;;;17.02;nan
77360;BME280;66426;51.454;7.266;2023-07-13T05:25:04;100104.19;;;16.74;nan
77360;BME280;66426;51.454;7.266;2023-07-13T05:26:07;100103.34;;;16.50;nan
77360;BME280;66426;51.454;7.266;2023-07-13T05:27:07;100111.78;;;17.29;nan
77360;BME280;66426;51.454;7.266;2023-07-13T05:28:08;100102.06;;;17.02;nan
77360;BME280;66426;51.454;7.266;2023-07-13T05:29:09;100112.91;;;16.79;nan
77360;BME280;66426;51.454;7.266;2023-07-13T05:30:10;100106.75;;;16.65;nan
77360;BME280;66426;51.454;7.266;2023-07-13T05:31:12;100108.34;;;16.56;nan
77360;BME280;66426;51.454;7.266;2023-07-13T05:32:13;100105.03;;;16.64;nan
77360;BME280;66426;51.454;7.266;2023-07-13T05:33:13;100112.03;;;16.79;nan
77360;BME280;66426;51.454;7.266;2023-07-13T05:34:14;100114.28;;;16.85;nan
77360;BME280;66426;51.454;7.266;2023-07-13T05:35:15;100114.91;;;16.89;nan
77360;BME280;66426;51.454;7.266;2023-07-13T05:36:16;100112.63;;;17.18;nan
77360;BME280;66426;51.454;7.266;2023-07-13T05:37:17;100115.41;;;16.94;nan
77360;BME280;66426;51.454;7.266;2023-07-13T05:38:18;100114.31;;;16.72;nan
77360;BME280;66426;51.454;7.266;2023-07-13T05:39:19;100118.13;;;16.70;nan
77360;BME280;66426;51.454;7.266;2023-07-13T05:40:19;100118.22;;;16.57;nan
77360;BME280;66426;51.454;7.266;2023-07-13T05:41:21;100121.09;;;16.67;nan
77360;BME280;66426;51.454;7.266;2023-07-13T05:42:22;100123.94;;;16.89;nan
77360;BME280;66426;51.454;7.266;2023-07-13T05:43:23;100124.75;;;16.54;nan